sensor_id;sensor_type;location;lat;lon;timestamp;P1;durP1;ratioP1;P2;durP2;ratioP2
34317;SDS011;20582;52.196;20.952;2023-03-12T00:02:09;19.20;;;8.45;;
34317;SDS011;20582;52.196;20.952;2023-03-12T00:04:35;20.92;;;9.20;;
34317;SDS011;20582;52.196;20.952;2023-03-12T00:07:02;22.48;;;8.82;;
34317;SDS011;20582;52.196;20.952;2023-03-12T00:09:30;18.15;;;8.98;;
34317;SDS011;20582;52.196;20.952;2023-03-12T00:11:56;19.85;;;9.27;;
34317;SDS011;20582;52.196;20.952;2023-03-12T00:14:22;21.70;;;9.57;;
34317;SDS011;20582;52.196;20.952;2023-03-12T00:16:48;21.92;;;9.32;;
34317;SDS011;20582;52.196;20.952;2023-03-12T00:19:14;25.70;;;9.30;;
34317;SDS011;20582;52.196;20.952;2023-03-12T00:21:40;20.38;;;9.48;;
34317;SDS011;20582;52.196;20.952;2023-03-12T00:24:06;19.02;;;10.23;;
34317;SDS011;20582;52.196;20.952;2023-03-12T00:26:32;24.45;;;9.50;;
34317;SDS011;20582;52.196;20.952;2023-03-12T00:28:58;23.05;;;9.98;;
34317;SDS011;20582;52.196;20.952;2023-03-12T00:31:25;21.15;;;10.63;;
34317;SDS011;20582;52.196;20.952;2023-03-12T00:33:52;20.42;;;10.45;;
34317;SDS011;20582;52.196;20.952;2023-03-12T00:36:18;24.60;;;12.35;;
34317;SDS011;20582;52.196;20.952;2023-03-12T00:38:45;22.58;;;10.80;;
34317;SDS011;20582;52.196;20.952;2023-03-12T00:41:11;22.27;;;11.13;;
34317;SDS011;20582;52.196;20.952;2023-03-12T00:43:37;21.42;;;10.70;;
34317;SDS011;20582;52.196;20.952;2023-03-12T00:46:03;22.25;;;11.02;;
34317;SDS011;20582;52.196;20.952;2023-03-12T00:48:29;25.42;;;11.38;;
34317;SDS011;20582;52.196;20.952;2023-03-12T00:50:55;24.98;;;11.98;;
34317;SDS011;20582;52.196;20.952;2023-03-12T00:53:21;24.00;;;11.82;;
34317;SDS011;20582;52.196;20.952;2023-03-12T00:55:47;26.27;;;12.07;;
34317;SDS011;20582;52.196;20.952;2023-03-12T00:58:13;23.90;;;12.75;;
34317;SDS011;20582;52.196;20.952;2023-03-12T01:00:39;24.52;;;12.80;;
34317;SDS011;20582;52.196;20.952;2023-03-12T01:03:05;25.27;;;12.77;;
34317;SDS011;20582;52.196;20.952;2023-03-12T01:05:31;25.83;;;12.15;;
34317;SDS011;20582;52.196;20.952;2023-03-12T01:08:02;23.92;;;12.18;;
34317;SDS011;20582;52.196;20.952;2023-03-12T01:10:28;26.52;;;12.88;;
34317;SDS011;20582;52.196;20.952;2023-03-12T01:12:54;26.45;;;11.82;;
34317;SDS011;20582;52.196;20.952;2023-03-12T01:15:20;24.60;;;13.05;;
34317;SDS011;20582;52.196;20.952;2023-03-12T01:17:46;30.48;;;13.43;;
34317;SDS011;20582;52.196;20.952;2023-03-12T01:20:12;30.52;;;14.00;;
34317;SDS011;20582;52.196;20.952;2023-03-12T01:22:38;27.42;;;13.98;;
34317;SDS011;20582;52.196;20.952;2023-03-12T01:25:04;23.23;;;12.40;;
34317;SDS011;20582;52.196;20.952;2023-03-12T01:27:30;28.40;;;13.93;;
34317;SDS011;20582;52.196;20.952;2023-03-12T01:29:57;27.95;;;13.48;;
34317;SDS011;20582;52.196;20.952;2023-03-12T01:32:22;27.85;;;14.25;;
34317;SDS011;20582;52.196;20.952;2023-03-12T01:34:48;25.48;;;12.80;;
34317;SDS011;20582;52.196;20.952;2023-03-12T01:37:14;27.55;;;13.63;;
34317;SDS011;20582;52.196;20.952;2023-03-12T01:39:40;27.13;;;12.55;;
34317;SDS011;20582;52.196;20.952;2023-03-12T01:42:06;24.50;;;12.30;;
34317;SDS011;20582;52.196;20.952;2023-03-12T01:44:49;27.65;;;13.07;;
34317;SDS011;20582;52.196;20.952;2023-03-12T01:47:15;24.85;;;12.48;;
34317;SDS011;20582;52.196;20.952;2023-03-12T01:49:41;25.10;;;12.18;;
34317;SDS011;20582;52.196;20.952;2023-03-12T01:52:08;25.60;;;12.25;;
34317;SDS011;20582;52.196;20.952;2023-03-12T01:54:39;24.00;;;11.52;;
34317;SDS011;20582;52.196;20.952;2023-03-12T01:59:33;25.10;;;11.55;;
34317;SDS011;20582;52.196;20.952;2023-03-12T02:01:59;22.70;;;10.90;;
34317;SDS011;20582;52.196;20.952;2023-03-12T02:04:25;22.98;;;10.95;;
34317;SDS011;20582;52.196;20.952;2023-03-12T02:06:56;22.65;;;11.35;;
34317;SDS011;20582;52.196;20.952;2023-03-12T02:09:22;21.17;;;11.10;;
34317;SDS011;20582;52.196;20.952;2023-03-12T02:11:49;21.58;;;10.50;;
34317;SDS011;20582;52.196;20.952;2023-03-12T02:14:15;23.10;;;11.40;;
34317;SDS011;20582;52.196;20.952;2023-03-12T02:16:41;19.67;;;10.32;;
34317;SDS011;20582;52.196;20.952;2023-03-12T02:19:10;21.52;;;10.40;;
34317;SDS011;20582;52.196;20.952;2023-03-12T02:21:37;20.83;;;10.00;;
34317;SDS011;20582;52.196;20.952;2023-03-12T02:24:11;19.27;;;9.27;;
34317;SDS011;20582;52.196;20.952;2023-03-12T02:26:40;18.83;;;9.45;;
34317;SDS011;20582;52.196;20.952;2023-03-12T02:29:07;21.65;;;10.50;;
34317;SDS011;20582;52.196;20.952;2023-03-12T02:31:36;21.88;;;9.98;;
34317;SDS011;20582;52.196;20.952;2023-03-12T02:34:03;21.45;;;9.80;;
34317;SDS011;20582;52.196;20.952;2023-03-12T02:36:29;20.42;;;9.65;;
34317;SDS011;20582;52.196;20.952;2023-03-12T02:38:55;21.58;;;10.40;;
34317;SDS011;20582;52.196;20.952;2023-03-12T02:41:22;19.05;;;9.32;;
34317;SDS011;20582;52.196;20.952;2023-03-12T02:43:51;18.73;;;9.07;;
34317;SDS011;20582;52.196;20.952;2023-03-12T02:46:18;20.57;;;9.80;;
34317;SDS011;20582;52.196;20.952;2023-03-12T02:48:44;19.50;;;8.50;;
34317;SDS011;20582;52.196;20.952;2023-03-12T02:51:10;19.85;;;9.13;;
34317;SDS011;20582;52.196;20.952;2023-03-12T02:53:36;19.48;;;9.85;;
34317;SDS011;20582;52.196;20.952;2023-03-12T02:56:03;19.08;;;9.07;;
34317;SDS011;20582;52.196;20.952;2023-03-12T02:58:29;18.20;;;8.63;;
34317;SDS011;20582;52.196;20.952;2023-03-12T03:00:55;19.20;;;8.70;;
34317;SDS011;20582;52.196;20.952;2023-03-12T03:03:21;20.58;;;9.40;;
34317;SDS011;20582;52.196;20.952;2023-03-12T03:05:47;15.90;;;8.38;;
34317;SDS011;20582;52.196;20.952;2023-03-12T03:08:13;18.15;;;8.65;;
34317;SDS011;20582;52.196;20.952;2023-03-12T03:10:39;18.05;;;7.82;;
34317;SDS011;20582;52.196;20.952;2023-03-12T03:13:05;16.98;;;8.57;;
34317;SDS011;20582;52.196;20.952;2023-03-12T03:15:31;15.75;;;7.82;;
34317;SDS011;20582;52.196;20.952;2023-03-12T03:17:57;15.07;;;7.47;;
34317;SDS011;20582;52.196;20.952;2023-03-12T03:20:23;17.17;;;8.00;;
34317;SDS011;20582;52.196;20.952;2023-03-12T03:22:50;15.57;;;7.82;;
34317;SDS011;20582;52.196;20.952;2023-03-12T03:25:16;17.88;;;8.13;;
34317;SDS011;20582;52.196;20.952;2023-03-12T03:27:46;17.63;;;8.32;;
34317;SDS011;20582;52.196;20.952;2023-03-12T03:30:12;17.92;;;8.50;;
34317;SDS011;20582;52.196;20.952;2023-03-12T03:32:38;17.25;;;7.85;;
34317;SDS011;20582;52.196;20.952;2023-03-12T03:35:04;17.05;;;7.70;;
34317;SDS011;20582;52.196;20.952;2023-03-12T03:37:30;19.63;;;8.77;;
34317;SDS011;20582;52.196;20.952;2023-03-12T03:39:56;16.05;;;7.07;;
34317;SDS011;20582;52.196;20.952;2023-03-12T03:42:22;15.45;;;7.70;;
34317;SDS011;20582;52.196;20.952;2023-03-12T03:44:48;16.58;;;7.47;;
34317;SDS011;20582;52.196;20.952;2023-03-12T03:47:14;21.98;;;8.52;;
34317;SDS011;20582;52.196;20.952;2023-03-12T03:49:40;14.20;;;7.18;;
34317;SDS011;20582;52.196;20.952;2023-03-12T03:52:06;18.13;;;8.07;;
34317;SDS011;20582;52.196;20.952;2023-03-12T03:54:32;16.08;;;8.18;;
34317;SDS011;20582;52.196;20.952;2023-03-12T03:56:58;16.45;;;8.68;;
34317;SDS011;20582;52.196;20.952;2023-03-12T03:59:24;18.02;;;8.15;;
34317;SDS011;20582;52.196;20.952;2023-03-12T04:01:50;19.00;;;8.43;;
34317;SDS011;20582;52.196;20.952;2023-03-12T04:04:16;17.95;;;9.02;;
34317;SDS011;20582;52.196;20.952;2023-03-12T04:06:42;15.70;;;7.78;;
34317;SDS011;20582;52.196;20.952;2023-03-12T04:09:08;14.75;;;8.05;;
34317;SDS011;20582;52.196;20.952;2023-03-12T04:11:34;16.15;;;8.45;;
34317;SDS011;20582;52.196;20.952;2023-03-12T04:14:00;15.10;;;7.95;;
34317;SDS011;20582;52.196;20.952;2023-03-12T04:16:26;16.75;;;7.85;;
34317;SDS011;20582;52.196;20.952;2023-03-12T04:18:52;23.17;;;8.75;;
34317;SDS011;20582;52.196;20.952;2023-03-12T04:21:18;17.00;;;7.95;;
34317;SDS011;20582;52.196;20.952;2023-03-12T04:23:44;15.10;;;8.20;;
34317;SDS011;20582;52.196;20.952;2023-03-12T04:26:10;16.90;;;7.70;;
34317;SDS011;20582;52.196;20.952;2023-03-12T04:28:36;16.23;;;7.20;;
34317;SDS011;20582;52.196;20.952;2023-03-12T04:31:04;13.90;;;7.97;;
34317;SDS011;20582;52.196;20.952;2023-03-12T04:33:32;13.35;;;7.28;;
34317;SDS011;20582;52.196;20.952;2023-03-12T04:35:58;20.00;;;7.72;;
34317;SDS011;20582;52.196;20.952;2023-03-12T04:38:24;14.48;;;7.10;;
34317;SDS011;20582;52.196;20.952;2023-03-12T04:41:01;15.27;;;7.25;;
34317;SDS011;20582;52.196;20.952;2023-03-12T04:43:28;17.08;;;7.45;;
34317;SDS011;20582;52.196;20.952;2023-03-12T04:45:54;18.55;;;7.90;;
34317;SDS011;20582;52.196;20.952;2023-03-12T04:48:20;14.98;;;7.05;;
34317;SDS011;20582;52.196;20.952;2023-03-12T04:50:46;15.48;;;7.13;;
34317;SDS011;20582;52.196;20.952;2023-03-12T04:53:12;16.98;;;7.50;;
34317;SDS011;20582;52.196;20.952;2023-03-12T04:55:38;20.05;;;7.75;;
34317;SDS011;20582;52.196;20.952;2023-03-12T04:58:04;19.10;;;7.85;;
34317;SDS011;20582;52.196;20.952;2023-03-12T05:00:30;13.77;;;7.10;;
34317;SDS011;20582;52.196;20.952;2023-03-12T05:02:56;13.60;;;7.43;;
34317;SDS011;20582;52.196;20.952;2023-03-12T05:05:22;15.43;;;7.43;;
34317;SDS011;20582;52.196;20.952;2023-03-12T05:07:49;12.48;;;7.38;;
34317;SDS011;20582;52.196;20.952;2023-03-12T05:10:15;15.60;;;8.18;;
34317;SDS011;20582;52.196;20.952;2023-03-12T05:12:41;15.82;;;7.78;;
34317;SDS011;20582;52.196;20.952;2023-03-12T05:15:07;15.80;;;7.82;;
34317;SDS011;20582;52.196;20.952;2023-03-12T05:17:33;14.68;;;7.07;;
34317;SDS011;20582;52.196;20.952;2023-03-12T05:19:59;13.45;;;7.30;;
34317;SDS011;20582;52.196;20.952;2023-03-12T05:22:25;15.55;;;6.82;;
34317;SDS011;20582;52.196;20.952;2023-03-12T05:24:51;16.30;;;7.45;;
34317;SDS011;20582;52.196;20.952;2023-03-12T05:27:17;15.38;;;7.13;;
34317;SDS011;20582;52.196;20.952;2023-03-12T05:29:44;14.68;;;7.53;;
34317;SDS011;20582;52.196;20.952;2023-03-12T05:32:10;14.38;;;8.05;;
34317;SDS011;20582;52.196;20.952;2023-03-12T05:34:36;14.57;;;7.20;;
34317;SDS011;20582;52.196;20.952;2023-03-12T05:37:02;16.15;;;8.10;;
34317;SDS011;20582;52.196;20.952;2023-03-12T05:39:28;13.20;;;6.85;;
34317;SDS011;20582;52.196;20.952;2023-03-12T05:41:54;15.25;;;7.07;;
34317;SDS011;20582;52.196;20.952;2023-03-12T05:44:21;15.88;;;6.85;;
34317;SDS011;20582;52.196;20.952;2023-03-12T05:46:47;14.55;;;6.85;;
34317;SDS011;20582;52.196;20.952;2023-03-12T05:49:13;14.82;;;6.85;;
34317;SDS011;20582;52.196;20.952;2023-03-12T05:51:39;12.15;;;6.97;;
34317;SDS011;20582;52.196;20.952;2023-03-12T05:54:07;15.07;;;6.45;;
34317;SDS011;20582;52.196;20.952;2023-03-12T05:56:34;14.43;;;6.60;;
34317;SDS011;20582;52.196;20.952;2023-03-12T05:59:00;12.85;;;7.05;;
34317;SDS011;20582;52.196;20.952;2023-03-12T06:01:27;16.52;;;7.15;;
34317;SDS011;20582;52.196;20.952;2023-03-12T06:03:53;13.60;;;6.45;;
34317;SDS011;20582;52.196;20.952;2023-03-12T06:06:19;13.98;;;6.75;;
34317;SDS011;20582;52.196;20.952;2023-03-12T06:08:45;18.23;;;6.38;;
34317;SDS011;20582;52.196;20.952;2023-03-12T06:11:11;16.13;;;6.80;;
34317;SDS011;20582;52.196;20.952;2023-03-12T06:13:37;16.75;;;6.88;;
34317;SDS011;20582;52.196;20.952;2023-03-12T06:16:05;18.88;;;7.18;;
34317;SDS011;20582;52.196;20.952;2023-03-12T06:18:31;12.77;;;6.70;;
34317;SDS011;20582;52.196;20.952;2023-03-12T06:21:07;13.68;;;6.90;;
34317;SDS011;20582;52.196;20.952;2023-03-12T06:23:34;13.52;;;6.32;;
34317;SDS011;20582;52.196;20.952;2023-03-12T06:26:00;10.68;;;5.75;;
34317;SDS011;20582;52.196;20.952;2023-03-12T06:28:26;11.65;;;6.20;;
34317;SDS011;20582;52.196;20.952;2023-03-12T06:30:52;12.88;;;6.20;;
34317;SDS011;20582;52.196;20.952;2023-03-12T06:33:18;10.95;;;5.30;;
34317;SDS011;20582;52.196;20.952;2023-03-12T06:35:44;13.35;;;5.22;;
34317;SDS011;20582;52.196;20.952;2023-03-12T06:38:10;10.27;;;5.40;;
34317;SDS011;20582;52.196;20.952;2023-03-12T06:40:36;11.60;;;5.25;;
34317;SDS011;20582;52.196;20.952;2023-03-12T06:43:02;11.38;;;5.13;;
34317;SDS011;20582;52.196;20.952;2023-03-12T06:45:28;14.02;;;5.13;;
34317;SDS011;20582;52.196;20.952;2023-03-12T06:47:54;10.35;;;5.07;;
34317;SDS011;20582;52.196;20.952;2023-03-12T06:50:20;13.20;;;5.90;;
34317;SDS011;20582;52.196;20.952;2023-03-12T06:52:46;10.40;;;5.22;;
34317;SDS011;20582;52.196;20.952;2023-03-12T06:55:12;14.10;;;6.32;;
34317;SDS011;20582;52.196;20.952;2023-03-12T06:57:38;10.75;;;5.35;;
34317;SDS011;20582;52.196;20.952;2023-03-12T07:00:04;9.73;;;4.88;;
34317;SDS011;20582;52.196;20.952;2023-03-12T07:02:31;10.10;;;5.50;;
34317;SDS011;20582;52.196;20.952;2023-03-12T07:04:57;11.25;;;5.35;;
34317;SDS011;20582;52.196;20.952;2023-03-12T07:07:23;11.48;;;5.45;;
34317;SDS011;20582;52.196;20.952;2023-03-12T07:09:49;13.90;;;5.30;;
34317;SDS011;20582;52.196;20.952;2023-03-12T07:12:15;11.70;;;5.55;;
34317;SDS011;20582;52.196;20.952;2023-03-12T07:14:41;11.10;;;5.68;;
34317;SDS011;20582;52.196;20.952;2023-03-12T07:17:07;11.15;;;5.47;;
34317;SDS011;20582;52.196;20.952;2023-03-12T07:19:33;12.18;;;5.72;;
34317;SDS011;20582;52.196;20.952;2023-03-12T07:21:59;10.75;;;5.65;;
34317;SDS011;20582;52.196;20.952;2023-03-12T07:24:25;12.32;;;6.18;;
34317;SDS011;20582;52.196;20.952;2023-03-12T07:26:51;10.07;;;5.20;;
34317;SDS011;20582;52.196;20.952;2023-03-12T07:29:17;12.20;;;5.70;;
34317;SDS011;20582;52.196;20.952;2023-03-12T07:31:43;12.60;;;5.85;;
34317;SDS011;20582;52.196;20.952;2023-03-12T07:34:09;15.18;;;5.40;;
34317;SDS011;20582;52.196;20.952;2023-03-12T07:36:36;9.85;;;4.47;;
34317;SDS011;20582;52.196;20.952;2023-03-12T07:39:02;12.00;;;5.25;;
34317;SDS011;20582;52.196;20.952;2023-03-12T07:41:28;9.52;;;4.90;;
34317;SDS011;20582;52.196;20.952;2023-03-12T07:43:54;9.02;;;4.70;;
34317;SDS011;20582;52.196;20.952;2023-03-12T07:46:21;9.02;;;4.25;;
34317;SDS011;20582;52.196;20.952;2023-03-12T07:48:47;10.77;;;4.53;;
34317;SDS011;20582;52.196;20.952;2023-03-12T07:51:13;14.10;;;4.53;;
34317;SDS011;20582;52.196;20.952;2023-03-12T07:53:39;8.90;;;4.60;;
34317;SDS011;20582;52.196;20.952;2023-03-12T07:56:05;11.50;;;4.13;;
34317;SDS011;20582;52.196;20.952;2023-03-12T07:58:32;10.48;;;4.10;;
34317;SDS011;20582;52.196;20.952;2023-03-12T08:01:00;10.90;;;3.72;;
34317;SDS011;20582;52.196;20.952;2023-03-12T08:03:27;7.10;;;3.33;;
34317;SDS011;20582;52.196;20.952;2023-03-12T08:05:57;10.65;;;3.40;;
34317;SDS011;20582;52.196;20.952;2023-03-12T08:08:23;11.13;;;4.13;;
34317;SDS011;20582;52.196;20.952;2023-03-12T08:10:50;10.93;;;4.18;;
34317;SDS011;20582;52.196;20.952;2023-03-12T08:13:16;9.27;;;4.07;;
34317;SDS011;20582;52.196;20.952;2023-03-12T08:15:43;6.95;;;3.05;;
34317;SDS011;20582;52.196;20.952;2023-03-12T08:18:09;7.82;;;3.05;;
34317;SDS011;20582;52.196;20.952;2023-03-12T08:20:35;8.63;;;3.05;;
34317;SDS011;20582;52.196;20.952;2023-03-12T08:23:02;7.00;;;2.88;;
34317;SDS011;20582;52.196;20.952;2023-03-12T08:25:28;7.10;;;3.00;;
34317;SDS011;20582;52.196;20.952;2023-03-12T08:27:54;8.27;;;3.17;;
34317;SDS011;20582;52.196;20.952;2023-03-12T08:30:20;7.53;;;2.80;;
34317;SDS011;20582;52.196;20.952;2023-03-12T08:32:46;7.57;;;3.08;;
34317;SDS011;20582;52.196;20.952;2023-03-12T08:35:13;3.72;;;2.30;;
34317;SDS011;20582;52.196;20.952;2023-03-12T08:37:39;6.50;;;2.60;;
34317;SDS011;20582;52.196;20.952;2023-03-12T08:40:05;7.63;;;3.20;;
34317;SDS011;20582;52.196;20.952;2023-03-12T08:42:39;7.95;;;3.00;;
34317;SDS011;20582;52.196;20.952;2023-03-12T08:45:05;6.47;;;2.67;;
34317;SDS011;20582;52.196;20.952;2023-03-12T08:47:31;7.45;;;2.70;;
34317;SDS011;20582;52.196;20.952;2023-03-12T08:49:57;7.32;;;3.15;;
34317;SDS011;20582;52.196;20.952;2023-03-12T08:52:24;9.07;;;3.30;;
34317;SDS011;20582;52.196;20.952;2023-03-12T08:54:50;7.72;;;3.13;;
34317;SDS011;20582;52.196;20.952;2023-03-12T08:57:16;6.68;;;3.10;;
34317;SDS011;20582;52.196;20.952;2023-03-12T08:59:42;9.18;;;3.38;;
34317;SDS011;20582;52.196;20.952;2023-03-12T09:02:09;9.35;;;3.10;;
34317;SDS011;20582;52.196;20.952;2023-03-12T09:04:36;7.30;;;3.13;;
34317;SDS011;20582;52.196;20.952;2023-03-12T09:07:02;8.90;;;2.80;;
34317;SDS011;20582;52.196;20.952;2023-03-12T09:09:28;9.20;;;2.92;;
34317;SDS011;20582;52.196;20.952;2023-03-12T09:11:54;7.50;;;2.55;;
34317;SDS011;20582;52.196;20.952;2023-03-12T09:14:20;8.77;;;2.75;;
34317;SDS011;20582;52.196;20.952;2023-03-12T09:16:46;7.43;;;2.40;;
34317;SDS011;20582;52.196;20.952;2023-03-12T09:19:13;7.25;;;2.22;;
34317;SDS011;20582;52.196;20.952;2023-03-12T09:21:39;4.80;;;2.00;;
34317;SDS011;20582;52.196;20.952;2023-03-12T09:24:06;7.82;;;2.50;;
34317;SDS011;20582;52.196;20.952;2023-03-12T09:26:32;7.45;;;2.50;;
34317;SDS011;20582;52.196;20.952;2023-03-12T09:28:58;4.95;;;2.50;;
34317;SDS011;20582;52.196;20.952;2023-03-12T09:31:24;5.43;;;2.05;;
34317;SDS011;20582;52.196;20.952;2023-03-12T09:33:51;7.38;;;2.33;;
34317;SDS011;20582;52.196;20.952;2023-03-12T09:36:17;9.80;;;2.63;;
34317;SDS011;20582;52.196;20.952;2023-03-12T09:38:43;6.30;;;2.20;;
34317;SDS011;20582;52.196;20.952;2023-03-12T09:41:29;6.22;;;1.95;;
34317;SDS011;20582;52.196;20.952;2023-03-12T09:44:16;6.60;;;1.90;;
34317;SDS011;20582;52.196;20.952;2023-03-12T09:46:46;4.90;;;1.85;;
34317;SDS011;20582;52.196;20.952;2023-03-12T09:49:16;4.97;;;1.75;;
34317;SDS011;20582;52.196;20.952;2023-03-12T09:51:44;6.68;;;1.70;;
34317;SDS011;20582;52.196;20.952;2023-03-12T09:54:37;7.88;;;2.25;;
34317;SDS011;20582;52.196;20.952;2023-03-12T09:57:00;6.15;;;2.25;;
34317;SDS011;20582;52.196;20.952;2023-03-12T09:59:27;4.93;;;2.05;;
34317;SDS011;20582;52.196;20.952;2023-03-12T10:01:55;7.65;;;2.60;;
34317;SDS011;20582;52.196;20.952;2023-03-12T10:04:37;6.28;;;2.20;;
34317;SDS011;20582;52.196;20.952;2023-03-12T10:07:07;6.63;;;2.47;;
34317;SDS011;20582;52.196;20.952;2023-03-12T10:12:23;5.68;;;1.92;;
34317;SDS011;20582;52.196;20.952;2023-03-12T10:17:27;4.82;;;2.13;;
34317;SDS011;20582;52.196;20.952;2023-03-12T10:28:26;7.53;;;2.15;;
34317;SDS011;20582;52.196;20.952;2023-03-12T10:30:53;8.25;;;2.13;;
34317;SDS011;20582;52.196;20.952;2023-03-12T10:33:20;6.43;;;2.40;;
34317;SDS011;20582;52.196;20.952;2023-03-12T10:35:48;8.27;;;2.67;;
34317;SDS011;20582;52.196;20.952;2023-03-12T10:38:36;6.93;;;2.00;;
34317;SDS011;20582;52.196;20.952;2023-03-12T10:41:10;8.07;;;2.10;;
34317;SDS011;20582;52.196;20.952;2023-03-12T10:43:36;7.88;;;1.92;;
34317;SDS011;20582;52.196;20.952;2023-03-12T10:46:14;7.72;;;2.13;;
34317;SDS011;20582;52.196;20.952;2023-03-12T10:51:10;6.43;;;2.10;;
34317;SDS011;20582;52.196;20.952;2023-03-12T10:53:43;8.55;;;2.28;;
34317;SDS011;20582;52.196;20.952;2023-03-12T10:56:18;5.05;;;2.03;;
34317;SDS011;20582;52.196;20.952;2023-03-12T10:58:46;7.18;;;2.40;;
34317;SDS011;20582;52.196;20.952;2023-03-12T11:03:45;7.40;;;1.98;;
34317;SDS011;20582;52.196;20.952;2023-03-12T11:06:27;7.38;;;2.47;;
34317;SDS011;20582;52.196;20.952;2023-03-12T11:09:01;6.60;;;1.90;;
34317;SDS011;20582;52.196;20.952;2023-03-12T11:11:30;8.77;;;2.20;;
34317;SDS011;20582;52.196;20.952;2023-03-12T11:16:41;6.35;;;2.10;;
34317;SDS011;20582;52.196;20.952;2023-03-12T11:19:09;7.05;;;1.95;;
34317;SDS011;20582;52.196;20.952;2023-03-12T11:21:37;7.85;;;2.30;;
34317;SDS011;20582;52.196;20.952;2023-03-12T11:24:06;6.97;;;2.22;;
34317;SDS011;20582;52.196;20.952;2023-03-12T11:34:32;7.32;;;2.13;;
34317;SDS011;20582;52.196;20.952;2023-03-12T11:42:50;5.57;;;1.95;;
34317;SDS011;20582;52.196;20.952;2023-03-12T11:45:21;8.73;;;2.20;;
34317;SDS011;20582;52.196;20.952;2023-03-12T11:50:20;6.57;;;2.33;;
34317;SDS011;20582;52.196;20.952;2023-03-12T11:55:37;5.05;;;1.90;;
34317;SDS011;20582;52.196;20.952;2023-03-12T11:58:11;5.95;;;2.08;;
34317;SDS011;20582;52.196;20.952;2023-03-12T12:00:41;7.03;;;2.08;;
34317;SDS011;20582;52.196;20.952;2023-03-12T12:13:28;7.85;;;2.30;;
34317;SDS011;20582;52.196;20.952;2023-03-12T12:16:02;8.02;;;2.35;;
34317;SDS011;20582;52.196;20.952;2023-03-12T12:18:39;6.75;;;2.58;;
34317;SDS011;20582;52.196;20.952;2023-03-12T12:21:12;6.53;;;2.20;;
34317;SDS011;20582;52.196;20.952;2023-03-12T12:36:14;5.90;;;2.33;;
34317;SDS011;20582;52.196;20.952;2023-03-12T12:38:49;7.55;;;2.42;;
34317;SDS011;20582;52.196;20.952;2023-03-12T12:41:18;7.50;;;2.58;;
34317;SDS011;20582;52.196;20.952;2023-03-12T12:43:47;5.72;;;2.20;;
34317;SDS011;20582;52.196;20.952;2023-03-12T12:46:18;7.78;;;2.60;;
34317;SDS011;20582;52.196;20.952;2023-03-12T12:48:45;8.43;;;2.55;;
34317;SDS011;20582;52.196;20.952;2023-03-12T12:51:13;9.82;;;2.97;;
34317;SDS011;20582;52.196;20.952;2023-03-12T12:58:45;7.85;;;3.13;;
34317;SDS011;20582;52.196;20.952;2023-03-12T13:01:16;7.38;;;2.70;;
34317;SDS011;20582;52.196;20.952;2023-03-12T13:03:43;8.88;;;2.70;;
34317;SDS011;20582;52.196;20.952;2023-03-12T13:06:11;5.90;;;2.17;;
34317;SDS011;20582;52.196;20.952;2023-03-12T13:14:33;7.55;;;2.58;;
34317;SDS011;20582;52.196;20.952;2023-03-12T13:19:03;7.43;;;2.33;;
34317;SDS011;20582;52.196;20.952;2023-03-12T13:26:30;6.65;;;1.75;;
34317;SDS011;20582;52.196;20.952;2023-03-12T13:29:19;6.75;;;2.10;;
34317;SDS011;20582;52.196;20.952;2023-03-12T13:31:46;8.77;;;2.63;;
34317;SDS011;20582;52.196;20.952;2023-03-12T13:36:45;7.10;;;2.28;;
34317;SDS011;20582;52.196;20.952;2023-03-12T13:41:45;7.85;;;2.55;;
34317;SDS011;20582;52.196;20.952;2023-03-12T13:49:24;6.93;;;2.58;;
34317;SDS011;20582;52.196;20.952;2023-03-12T13:51:55;6.47;;;2.20;;
34317;SDS011;20582;52.196;20.952;2023-03-12T13:54:24;6.10;;;2.20;;
34317;SDS011;20582;52.196;20.952;2023-03-12T13:56:54;6.25;;;2.30;;
34317;SDS011;20582;52.196;20.952;2023-03-12T13:59:29;7.07;;;2.50;;
34317;SDS011;20582;52.196;20.952;2023-03-12T14:01:57;7.05;;;2.30;;
34317;SDS011;20582;52.196;20.952;2023-03-12T14:04:27;8.10;;;2.70;;
34317;SDS011;20582;52.196;20.952;2023-03-12T14:07:04;7.18;;;2.33;;
34317;SDS011;20582;52.196;20.952;2023-03-12T14:09:42;7.75;;;2.70;;
34317;SDS011;20582;52.196;20.952;2023-03-12T14:14:54;7.30;;;2.53;;
34317;SDS011;20582;52.196;20.952;2023-03-12T14:17:24;8.23;;;2.20;;
34317;SDS011;20582;52.196;20.952;2023-03-12T14:20:33;6.65;;;2.35;;
34317;SDS011;20582;52.196;20.952;2023-03-12T14:22:41;6.30;;;2.15;;
34317;SDS011;20582;52.196;20.952;2023-03-12T14:27:38;8.13;;;2.50;;
34317;SDS011;20582;52.196;20.952;2023-03-12T14:32:37;7.85;;;2.28;;
34317;SDS011;20582;52.196;20.952;2023-03-12T14:37:42;9.40;;;2.58;;
34317;SDS011;20582;52.196;20.952;2023-03-12T14:40:33;7.95;;;2.83;;
34317;SDS011;20582;52.196;20.952;2023-03-12T14:42:59;7.50;;;2.72;;
34317;SDS011;20582;52.196;20.952;2023-03-12T14:45:26;6.00;;;2.47;;
34317;SDS011;20582;52.196;20.952;2023-03-12T14:47:53;7.15;;;2.50;;
34317;SDS011;20582;52.196;20.952;2023-03-12T14:50:21;10.60;;;2.85;;
34317;SDS011;20582;52.196;20.952;2023-03-12T14:52:47;7.43;;;2.42;;
34317;SDS011;20582;52.196;20.952;2023-03-12T14:55:15;8.27;;;2.72;;
34317;SDS011;20582;52.196;20.952;2023-03-12T14:57:44;6.18;;;2.22;;
34317;SDS011;20582;52.196;20.952;2023-03-12T15:00:21;6.72;;;2.53;;
34317;SDS011;20582;52.196;20.952;2023-03-12T15:02:47;8.75;;;2.60;;
34317;SDS011;20582;52.196;20.952;2023-03-12T15:05:15;6.47;;;2.55;;
34317;SDS011;20582;52.196;20.952;2023-03-12T15:07:41;7.65;;;2.60;;
34317;SDS011;20582;52.196;20.952;2023-03-12T15:10:29;7.75;;;2.50;;
34317;SDS011;20582;52.196;20.952;2023-03-12T15:12:55;6.82;;;2.67;;
34317;SDS011;20582;52.196;20.952;2023-03-12T15:18:09;7.78;;;2.67;;
34317;SDS011;20582;52.196;20.952;2023-03-12T15:20:36;9.05;;;2.70;;
34317;SDS011;20582;52.196;20.952;2023-03-12T15:23:03;7.63;;;2.63;;
34317;SDS011;20582;52.196;20.952;2023-03-12T15:25:31;8.32;;;2.60;;
34317;SDS011;20582;52.196;20.952;2023-03-12T15:28:23;8.60;;;3.03;;
34317;SDS011;20582;52.196;20.952;2023-03-12T15:33:34;8.85;;;2.80;;
34317;SDS011;20582;52.196;20.952;2023-03-12T15:38:46;8.27;;;3.10;;
34317;SDS011;20582;52.196;20.952;2023-03-12T15:41:18;8.05;;;2.60;;
34317;SDS011;20582;52.196;20.952;2023-03-12T15:43:50;6.35;;;2.88;;
34317;SDS011;20582;52.196;20.952;2023-03-12T15:46:16;7.25;;;2.88;;
34317;SDS011;20582;52.196;20.952;2023-03-12T15:48:46;7.07;;;2.88;;
34317;SDS011;20582;52.196;20.952;2023-03-12T15:53:59;8.18;;;2.60;;
34317;SDS011;20582;52.196;20.952;2023-03-12T15:56:26;7.20;;;2.75;;
34317;SDS011;20582;52.196;20.952;2023-03-12T15:59:27;9.05;;;2.60;;
34317;SDS011;20582;52.196;20.952;2023-03-12T16:01:46;8.40;;;2.78;;
34317;SDS011;20582;52.196;20.952;2023-03-12T16:04:13;7.20;;;2.30;;
34317;SDS011;20582;52.196;20.952;2023-03-12T16:06:39;9.75;;;3.10;;
34317;SDS011;20582;52.196;20.952;2023-03-12T16:09:08;10.15;;;3.17;;
34317;SDS011;20582;52.196;20.952;2023-03-12T16:11:37;10.25;;;3.22;;
34317;SDS011;20582;52.196;20.952;2023-03-12T16:14:04;7.22;;;3.08;;
34317;SDS011;20582;52.196;20.952;2023-03-12T16:16:31;12.45;;;3.78;;
34317;SDS011;20582;52.196;20.952;2023-03-12T16:18:57;8.30;;;2.60;;
34317;SDS011;20582;52.196;20.952;2023-03-12T16:21:23;7.57;;;2.85;;
34317;SDS011;20582;52.196;20.952;2023-03-12T16:23:50;11.65;;;3.15;;
34317;SDS011;20582;52.196;20.952;2023-03-12T16:26:16;7.45;;;2.50;;